createdAt,value
2019-05-30T00:02:07.028Z,2.77
2019-05-30T00:04:36.236Z,2.50
2019-05-30T00:07:05.353Z,2.77
2019-05-30T00:09:34.352Z,2.47
2019-05-30T00:12:03.340Z,2.60
2019-05-30T00:14:32.382Z,2.63
2019-05-30T00:17:01.415Z,2.60
2019-05-30T00:19:33.693Z,2.33
2019-05-30T00:22:01.426Z,2.70
2019-05-30T00:24:30.477Z,3.10
2019-05-30T00:27:00.272Z,2.73
2019-05-30T00:29:29.387Z,3.20
2019-05-30T00:31:59.379Z,3.03
2019-05-30T00:34:28.425Z,3.17
2019-05-30T00:36:57.712Z,2.93
2019-05-30T00:39:26.791Z,3.43
2019-05-30T00:41:56.057Z,3.43
2019-05-30T00:44:25.262Z,2.97
2019-05-30T00:46:54.325Z,2.80
2019-05-30T00:49:23.486Z,2.97
2019-05-30T00:51:52.526Z,2.20
2019-05-30T00:54:21.520Z,2.00
2019-05-30T00:56:50.507Z,1.50
2019-05-30T00:59:19.590Z,1.97
2019-05-30T01:01:48.584Z,1.70
2019-05-30T01:04:17.698Z,2.03
2019-05-30T01:06:46.782Z,1.90
2019-05-30T01:09:16.869Z,2.03
2019-05-30T01:11:45.952Z,2.33
2019-05-30T01:14:15.032Z,2.20
2019-05-30T01:16:44.117Z,2.63
2019-05-30T01:19:13.183Z,2.70
2019-05-30T01:21:42.260Z,3.13
2019-05-30T01:24:11.418Z,2.93
2019-05-30T01:26:40.505Z,2.73
2019-05-30T01:29:09.547Z,3.27
2019-05-30T01:31:38.526Z,3.73
2019-05-30T01:34:07.964Z,3.83
2019-05-30T01:36:37.115Z,4.80
2019-05-30T01:39:08.172Z,4.90
2019-05-30T01:41:37.363Z,4.97
2019-05-30T01:44:06.396Z,5.43
2019-05-30T01:46:35.451Z,5.50
2019-05-30T01:49:04.497Z,6.33
2019-05-30T01:51:33.550Z,5.50
2019-05-30T01:54:02.631Z,5.63
2019-05-30T01:56:31.655Z,6.40
2019-05-30T01:59:00.797Z,5.47
2019-05-30T02:01:29.851Z,6.27
2019-05-30T02:03:59.168Z,6.37
2019-05-30T02:06:28.180Z,6.37
2019-05-30T02:08:57.207Z,6.37
2019-05-30T02:11:26.262Z,7.07
2019-05-30T02:14:14.448Z,6.73
2019-05-30T02:16:43.557Z,7.33
2019-05-30T02:19:12.594Z,8.13
2019-05-30T02:21:41.583Z,7.60
2019-05-30T02:24:12.303Z,8.13
2019-05-30T02:26:41.524Z,7.70
2019-05-30T02:29:10.548Z,8.30
2019-05-30T02:31:40.015Z,8.00
2019-05-30T02:34:10.153Z,8.37
2019-05-30T02:36:39.897Z,8.23
2019-05-30T02:39:09.847Z,8.00
2019-05-30T02:41:39.757Z,8.47
2019-05-30T02:44:10.247Z,9.07
2019-05-30T02:46:39.491Z,9.23
2019-05-30T02:49:11.096Z,9.30
2019-05-30T02:51:39.306Z,10.10
2019-05-30T02:54:09.304Z,10.07
2019-05-30T02:56:39.076Z,10.80
2019-05-30T02:59:09.170Z,10.80
2019-05-30T03:01:59.270Z,10.37
2019-05-30T03:04:12.679Z,11.23
2019-05-30T03:06:41.401Z,11.10
2019-05-30T03:09:11.476Z,11.73
2019-05-30T03:12:01.899Z,11.47
2019-05-30T03:14:31.219Z,11.77
2019-05-30T03:17:02.331Z,11.50
2019-05-30T03:19:30.955Z,13.00
2019-05-30T03:22:03.453Z,13.47
2019-05-30T03:24:31.821Z,13.13
2019-05-30T03:27:02.456Z,14.13
2019-05-30T03:29:31.622Z,14.77
2019-05-30T03:32:33.954Z,15.13
2019-05-30T03:34:31.368Z,15.63
2019-05-30T03:37:00.364Z,15.57
2019-05-30T03:39:29.417Z,16.60
2019-05-30T03:41:58.455Z,16.20
2019-05-30T03:44:27.536Z,17.40
2019-05-30T03:46:57.959Z,16.40
2019-05-30T03:49:29.242Z,16.80
2019-05-30T03:51:58.678Z,18.17
2019-05-30T03:54:27.771Z,18.70
2019-05-30T03:57:02.462Z,18.10
2019-05-30T03:59:32.896Z,19.50
2019-05-30T04:02:58.152Z,19.57
2019-05-30T04:05:30.859Z,18.03
2019-05-30T04:07:59.922Z,19.77
2019-05-30T04:10:31.327Z,22.33
2019-05-30T04:13:25.610Z,20.93
2019-05-30T04:15:54.740Z,21.50
2019-05-30T04:18:23.765Z,22.00
2019-05-30T04:20:52.753Z,20.87
2019-05-30T04:23:21.790Z,22.20
2019-05-30T04:25:50.846Z,24.30
2019-05-30T04:28:19.913Z,23.90
2019-05-30T04:30:48.960Z,25.27
2019-05-30T04:33:31.678Z,23.93
2019-05-30T04:35:48.742Z,23.70
2019-05-30T04:38:19.468Z,24.90
2019-05-30T04:40:48.519Z,24.90
2019-05-30T04:43:18.013Z,25.43
2019-05-30T04:45:48.637Z,25.77
2019-05-30T04:48:18.631Z,26.73
2019-05-30T04:50:48.190Z,27.10
2019-05-30T04:53:18.458Z,27.87
2019-05-30T04:55:47.605Z,28.73
2019-05-30T04:58:18.037Z,28.73
2019-05-30T05:00:47.586Z,28.63
2019-05-30T05:03:23.244Z,29.17
2019-05-30T05:05:47.454Z,27.50
2019-05-30T05:08:17.766Z,29.13
2019-05-30T05:10:47.058Z,29.03
2019-05-30T05:13:18.324Z,28.23
2019-05-30T05:15:47.532Z,28.47
2019-05-30T05:18:16.912Z,27.37
2019-05-30T05:20:46.106Z,28.20
2019-05-30T05:23:15.174Z,26.87
2019-05-30T05:25:57.757Z,25.77
2019-05-30T05:28:15.763Z,26.77
2019-05-30T05:30:44.873Z,26.67
2019-05-30T05:33:16.541Z,25.23
2019-05-30T05:35:45.804Z,23.80
2019-05-30T05:38:16.398Z,23.50
2019-05-30T05:40:45.516Z,22.83
2019-05-30T05:43:14.676Z,21.97
2019-05-30T05:45:43.800Z,22.93
2019-05-30T05:48:12.867Z,20.90
2019-05-30T05:50:41.918Z,20.47
2019-05-30T05:53:10.974Z,20.70
2019-05-30T05:55:40.010Z,19.03
2019-05-30T05:58:09.028Z,21.17
2019-05-30T06:00:38.200Z,20.43
2019-05-30T06:03:07.201Z,21.90
2019-05-30T06:05:36.202Z,22.87
2019-05-30T06:08:05.400Z,21.90
2019-05-30T06:10:34.422Z,21.70
2019-05-30T06:13:03.467Z,21.83
2019-05-30T06:15:32.534Z,20.57
2019-05-30T06:18:01.610Z,19.80
2019-05-30T06:20:32.269Z,20.23
2019-05-30T06:23:01.331Z,19.87
2019-05-30T06:25:32.723Z,19.40
2019-05-30T06:28:01.050Z,19.07
2019-05-30T06:30:30.070Z,20.07
2019-05-30T06:32:59.146Z,19.83
2019-05-30T06:35:29.519Z,19.87
2019-05-30T06:37:58.612Z,18.77
2019-05-30T06:40:30.900Z,19.20
2019-05-30T06:42:58.514Z,17.97
2019-05-30T06:45:28.380Z,18.17
2019-05-30T06:47:57.680Z,18.77
2019-05-30T06:50:26.906Z,17.30
2019-05-30T06:52:56.096Z,17.73
2019-05-30T06:55:25.299Z,16.87
2019-05-30T06:57:54.303Z,18.47
2019-05-30T07:00:23.753Z,17.17
2019-05-30T07:02:53.185Z,17.23
2019-05-30T07:05:23.420Z,17.60
2019-05-30T07:07:55.026Z,17.93
2019-05-30T07:10:24.859Z,18.93
2019-05-30T07:12:55.614Z,17.47
2019-05-30T07:15:25.094Z,17.20
2019-05-30T07:17:54.310Z,16.70
2019-05-30T07:20:23.559Z,17.53
2019-05-30T07:22:52.599Z,17.80
2019-05-30T07:25:21.638Z,17.90
2019-05-30T07:27:50.788Z,16.70
2019-05-30T07:30:19.914Z,18.70
2019-05-30T07:32:49.071Z,17.20
2019-05-30T07:35:18.113Z,17.47
2019-05-30T07:37:47.114Z,17.63
2019-05-30T07:40:19.374Z,18.57
2019-05-30T07:42:46.860Z,17.97
2019-05-30T07:45:15.979Z,17.97
2019-05-30T07:47:44.922Z,15.77
2019-05-30T07:50:13.979Z,15.53
2019-05-30T07:52:43.049Z,16.73
2019-05-30T07:55:31.336Z,15.57
2019-05-30T07:58:00.384Z,14.90
2019-05-30T08:00:29.455Z,14.57
2019-05-30T08:02:58.501Z,15.77
2019-05-30T08:05:28.579Z,15.00
2019-05-30T08:07:57.669Z,14.83
2019-05-30T08:10:27.730Z,14.23
2019-05-30T08:12:56.895Z,13.90
2019-05-30T08:15:27.176Z,14.63
2019-05-30T08:17:56.306Z,13.57
2019-05-30T08:20:25.429Z,12.10
2019-05-30T08:22:54.478Z,12.37
2019-05-30T08:25:23.567Z,12.43
2019-05-30T08:27:52.713Z,13.23
2019-05-30T08:30:21.766Z,12.17
2019-05-30T08:32:50.786Z,11.80
2019-05-30T08:35:19.780Z,13.00
2019-05-30T08:37:52.520Z,13.50
2019-05-30T08:40:22.114Z,13.73
2019-05-30T08:42:51.274Z,12.30
2019-05-30T08:45:20.758Z,12.00
2019-05-30T08:47:49.843Z,11.10
2019-05-30T08:50:18.862Z,11.73
2019-05-30T08:52:47.921Z,11.67
2019-05-30T08:55:19.362Z,11.30
2019-05-30T08:57:48.122Z,11.30
2019-05-30T09:00:17.234Z,11.07
2019-05-30T09:02:46.923Z,10.57
2019-05-30T09:05:16.115Z,11.40
2019-05-30T09:07:46.256Z,11.47
2019-05-30T09:10:15.419Z,10.57
2019-05-30T09:12:48.769Z,12.00
2019-05-30T09:15:15.222Z,13.03
2019-05-30T09:17:44.866Z,12.57
2019-05-30T09:20:15.090Z,11.40
2019-05-30T09:22:45.368Z,11.87
2019-05-30T09:25:17.101Z,11.20
2019-05-30T09:27:46.721Z,10.73
2019-05-30T09:30:15.893Z,11.47
2019-05-30T09:32:45.275Z,10.80
2019-05-30T09:35:14.571Z,10.77
2019-05-30T09:37:44.139Z,10.77
2019-05-30T09:40:20.359Z,10.80
2019-05-30T09:42:50.371Z,10.60
2019-05-30T09:45:19.799Z,11.17
2019-05-30T09:47:49.332Z,10.93
2019-05-30T09:50:18.896Z,10.17
2019-05-30T09:52:49.161Z,9.97
2019-05-30T09:55:18.440Z,8.80
2019-05-30T09:57:47.658Z,9.17
2019-05-30T10:00:16.970Z,8.50
2019-05-30T10:02:46.720Z,8.13
2019-05-30T10:05:15.968Z,7.03
2019-05-30T10:07:45.576Z,8.37
2019-05-30T10:10:15.703Z,7.43
2019-05-30T10:12:45.534Z,7.43
2019-05-30T10:15:19.592Z,9.77
2019-05-30T10:17:51.809Z,7.87
2019-05-30T10:20:20.085Z,7.90
2019-05-30T10:22:50.822Z,10.70
2019-05-30T10:25:21.290Z,10.50
2019-05-30T10:27:51.157Z,10.10
2019-05-30T10:30:21.055Z,10.33
2019-05-30T10:32:50.677Z,9.40
2019-05-30T10:35:20.982Z,8.77
2019-05-30T10:37:50.935Z,8.97
2019-05-30T10:40:22.250Z,9.70
2019-05-30T10:42:53.156Z,8.70
2019-05-30T10:45:22.169Z,9.67
2019-05-30T10:47:51.434Z,8.30
2019-05-30T10:50:20.457Z,7.73
2019-05-30T10:52:49.567Z,8.50
2019-05-30T10:55:18.615Z,9.40
2019-05-30T10:57:48.646Z,9.27
2019-05-30T11:00:18.444Z,10.20
2019-05-30T11:02:49.256Z,10.40
2019-05-30T11:05:18.347Z,9.87
2019-05-30T11:08:01.961Z,8.77
2019-05-30T11:10:35.895Z,9.43
2019-05-30T11:13:06.060Z,8.53
2019-05-30T11:15:35.187Z,9.40
2019-05-30T11:18:04.278Z,10.63
2019-05-30T11:20:33.359Z,9.60
2019-05-30T11:23:02.383Z,9.43
2019-05-30T11:25:31.790Z,9.27
2019-05-30T11:28:00.859Z,9.40
2019-05-30T11:30:29.880Z,9.53
2019-05-30T11:32:59.445Z,9.73
2019-05-30T11:35:28.671Z,9.57
2019-05-30T11:37:57.738Z,9.73
2019-05-30T11:40:26.769Z,9.40
2019-05-30T11:42:55.798Z,9.63
2019-05-30T11:45:24.826Z,9.23
2019-05-30T11:47:53.949Z,9.47
2019-05-30T11:50:24.661Z,7.43
2019-05-30T11:52:53.839Z,8.17
2019-05-30T11:55:22.831Z,7.03
2019-05-30T11:57:52.104Z,7.40
2019-05-30T12:00:21.210Z,6.47
2019-05-30T12:02:50.291Z,7.47
2019-05-30T12:05:20.011Z,6.70
2019-05-30T12:07:49.006Z,6.53
2019-05-30T12:10:18.197Z,6.20
2019-05-30T12:12:47.278Z,5.30
2019-05-30T12:15:17.519Z,5.63
2019-05-30T12:17:46.541Z,5.57
2019-05-30T12:20:15.548Z,6.20
2019-05-30T12:22:44.691Z,5.77
2019-05-30T12:25:13.772Z,5.57
2019-05-30T12:27:42.881Z,5.27
2019-05-30T12:30:11.904Z,5.70
2019-05-30T12:32:40.923Z,4.90
2019-05-30T12:35:10.170Z,4.77
2019-05-30T12:37:53.273Z,4.40
2019-05-30T12:40:10.142Z,4.40
2019-05-30T12:42:39.154Z,4.13
2019-05-30T12:45:08.298Z,3.80
2019-05-30T12:47:37.337Z,4.40
2019-05-30T12:50:07.107Z,4.03
2019-05-30T12:52:36.127Z,4.07
2019-05-30T12:55:06.880Z,4.30
2019-05-30T12:57:36.066Z,4.13
2019-05-30T13:00:13.653Z,4.17
2019-05-30T13:02:36.642Z,4.03
2019-05-30T13:05:05.690Z,3.97
2019-05-30T13:07:34.779Z,4.37
2019-05-30T13:10:03.936Z,3.43
2019-05-30T13:12:33.036Z,4.20
2019-05-30T13:15:02.077Z,4.50
2019-05-30T13:17:31.156Z,3.80
2019-05-30T13:20:01.437Z,4.53
2019-05-30T13:22:30.670Z,4.73
2019-05-30T13:24:59.774Z,4.23
2019-05-30T13:27:28.848Z,5.07
2019-05-30T13:29:58.031Z,4.77
2019-05-30T13:32:27.063Z,4.63
2019-05-30T13:34:56.810Z,4.83
2019-05-30T13:37:25.961Z,4.03
2019-05-30T13:39:54.942Z,4.63
2019-05-30T13:42:23.952Z,4.50
2019-05-30T13:44:52.978Z,4.87
2019-05-30T13:47:21.991Z,5.30
2019-05-30T13:49:51.122Z,6.27
2019-05-30T13:52:20.125Z,4.53
2019-05-30T13:54:49.171Z,4.77
2019-05-30T13:57:18.250Z,4.30
2019-05-30T13:59:47.310Z,3.87
2019-05-30T14:02:16.410Z,4.50
2019-05-30T14:04:45.468Z,5.20
2019-05-30T14:07:14.520Z,4.63
2019-05-30T14:09:43.535Z,4.07
2019-05-30T14:12:12.585Z,4.10
2019-05-30T14:14:41.752Z,3.80
2019-05-30T14:17:12.428Z,3.97
2019-05-30T14:19:44.246Z,3.70
2019-05-30T14:22:13.266Z,3.70
2019-05-30T14:24:42.329Z,4.00
2019-05-30T14:27:11.817Z,3.37
2019-05-30T14:29:43.909Z,2.60
2019-05-30T14:32:12.952Z,3.00
2019-05-30T14:34:42.042Z,2.77
2019-05-30T14:37:11.127Z,3.40
2019-05-30T14:39:40.129Z,2.83
2019-05-30T14:42:09.236Z,2.70
2019-05-30T14:44:38.327Z,2.43
2019-05-30T14:47:08.362Z,3.20
2019-05-30T14:49:37.385Z,3.30
2019-05-30T14:52:06.726Z,3.20
2019-05-30T14:54:35.878Z,3.37
2019-05-30T14:57:05.030Z,3.87
2019-05-30T14:59:34.075Z,3.20
2019-05-30T15:02:03.113Z,3.07
2019-05-30T15:04:32.167Z,3.50
2019-05-30T15:07:01.234Z,3.83
2019-05-30T15:09:30.255Z,3.53
2019-05-30T15:11:59.231Z,3.50
2019-05-30T15:14:28.344Z,4.37
2019-05-30T15:16:57.392Z,3.10
2019-05-30T15:19:26.459Z,2.90
2019-05-30T15:21:55.498Z,3.10
2019-05-30T15:24:24.603Z,3.77
2019-05-30T15:26:53.683Z,3.33
2019-05-30T15:29:22.751Z,3.50
2019-05-30T15:31:51.816Z,2.83
2019-05-30T15:34:20.826Z,3.43
2019-05-30T15:36:49.878Z,3.03
2019-05-30T15:39:31.118Z,3.30
2019-05-30T15:41:49.664Z,2.87
2019-05-30T15:44:18.739Z,3.17
2019-05-30T15:46:47.762Z,2.10
2019-05-30T15:49:16.755Z,2.17
2019-05-30T15:51:45.818Z,2.03
2019-05-30T15:54:15.037Z,1.87
2019-05-30T15:56:44.131Z,2.33
2019-05-30T15:59:13.686Z,2.43
2019-05-30T16:01:42.702Z,2.50
2019-05-30T16:04:12.048Z,2.10
2019-05-30T16:06:42.335Z,2.33
2019-05-30T16:09:12.372Z,2.23
2019-05-30T16:11:41.727Z,2.10
2019-05-30T16:14:11.127Z,2.20
2019-05-30T16:16:40.697Z,1.97
2019-05-30T16:19:18.372Z,1.70
2019-05-30T16:21:40.574Z,2.83
2019-05-30T16:24:09.625Z,2.43
2019-05-30T16:26:38.691Z,2.60
2019-05-30T16:29:07.754Z,2.70
2019-05-30T16:31:36.826Z,2.43
2019-05-30T16:34:05.828Z,1.90
2019-05-30T16:36:34.839Z,2.47
2019-05-30T16:39:04.061Z,2.40
2019-05-30T16:41:33.024Z,2.30
2019-05-30T16:44:02.279Z,2.37
2019-05-30T16:46:31.398Z,2.50
2019-05-30T16:49:00.443Z,2.27
2019-05-30T16:51:29.504Z,2.33
2019-05-30T16:53:58.545Z,2.70
2019-05-30T16:56:27.569Z,2.67
2019-05-30T16:58:56.620Z,2.43
2019-05-30T17:01:26.017Z,2.97
2019-05-30T17:03:55.131Z,2.87
2019-05-30T17:06:24.172Z,3.20
2019-05-30T17:08:53.228Z,3.20
2019-05-30T17:11:23.446Z,3.20
2019-05-30T17:13:52.618Z,3.07
2019-05-30T17:16:22.101Z,3.50
2019-05-30T17:18:51.122Z,3.10
2019-05-30T17:21:21.115Z,3.13
2019-05-30T17:23:50.201Z,3.10
2019-05-30T17:26:19.207Z,3.57
2019-05-30T17:28:48.331Z,3.20
2019-05-30T17:31:17.649Z,3.50
2019-05-30T17:33:46.751Z,2.80
2019-05-30T17:36:15.778Z,2.90
2019-05-30T17:38:44.926Z,3.33
2019-05-30T17:41:14.021Z,2.40
2019-05-30T17:43:43.104Z,2.60
2019-05-30T17:46:12.539Z,3.10
2019-05-30T17:48:44.639Z,3.27
2019-05-30T17:51:13.700Z,3.23
2019-05-30T17:53:42.759Z,2.90
2019-05-30T17:56:11.802Z,3.20
2019-05-30T17:58:40.862Z,3.63
2019-05-30T18:01:09.993Z,3.20
2019-05-30T18:03:39.058Z,3.87
2019-05-30T18:06:08.105Z,3.03
2019-05-30T18:08:37.186Z,3.53
2019-05-30T18:11:06.218Z,3.43
2019-05-30T18:13:35.207Z,3.27
2019-05-30T18:16:04.342Z,3.10
2019-05-30T18:18:33.386Z,3.80
2019-05-30T18:21:02.445Z,3.37
2019-05-30T18:23:31.843Z,4.23
2019-05-30T18:26:00.969Z,3.30
2019-05-30T18:28:30.015Z,3.43
2019-05-30T18:30:59.035Z,3.33
2019-05-30T18:33:28.381Z,4.17
2019-05-30T18:35:57.524Z,3.50
2019-05-30T18:38:26.610Z,3.50
2019-05-30T18:41:10.257Z,3.13
2019-05-30T18:43:26.787Z,3.57
2019-05-30T18:45:55.944Z,3.07
2019-05-30T18:48:25.272Z,2.93
2019-05-30T18:50:54.455Z,2.77
2019-05-30T18:53:24.224Z,3.30
2019-05-30T18:55:53.326Z,3.40
2019-05-30T18:58:22.305Z,3.30
2019-05-30T19:00:51.421Z,3.60
2019-05-30T19:03:20.498Z,3.30
2019-05-30T19:05:49.554Z,3.30
2019-05-30T19:08:18.571Z,3.53
2019-05-30T19:10:47.628Z,3.30
2019-05-30T19:13:16.798Z,3.10
2019-05-30T19:15:45.820Z,4.20
2019-05-30T19:18:14.858Z,3.20
2019-05-30T19:20:43.938Z,3.50
2019-05-30T19:23:12.997Z,3.10
2019-05-30T19:25:42.320Z,3.40
2019-05-30T19:28:11.359Z,3.07
2019-05-30T19:30:41.209Z,3.30
2019-05-30T19:33:10.315Z,3.30
2019-05-30T19:35:39.292Z,2.67
2019-05-30T19:38:08.408Z,3.13
2019-05-30T19:40:38.048Z,3.53
2019-05-30T19:43:07.410Z,3.90
2019-05-30T19:45:36.664Z,3.77
2019-05-30T19:48:05.699Z,3.10
2019-05-30T19:50:34.742Z,3.40
2019-05-30T19:53:03.791Z,3.47
2019-05-30T19:55:33.236Z,3.23
2019-05-30T19:58:02.317Z,3.27
2019-05-30T20:00:31.993Z,3.20
2019-05-30T20:03:01.146Z,3.30
2019-05-30T20:05:30.512Z,3.17
2019-05-30T20:07:59.500Z,3.50
2019-05-30T20:10:28.477Z,3.20
2019-05-30T20:12:57.490Z,3.10
2019-05-30T20:15:26.530Z,3.13
2019-05-30T20:17:55.629Z,3.27
2019-05-30T20:20:24.689Z,2.90
2019-05-30T20:22:53.763Z,3.10
2019-05-30T20:25:22.735Z,2.83
2019-05-30T20:27:51.874Z,3.30
2019-05-30T20:30:20.921Z,2.87
2019-05-30T20:32:49.966Z,3.10
2019-05-30T20:35:19.044Z,2.80
2019-05-30T20:37:48.095Z,3.00
2019-05-30T20:40:36.896Z,2.93
2019-05-30T20:43:06.181Z,2.97
2019-05-30T20:45:39.573Z,3.33
2019-05-30T20:48:17.575Z,3.10
2019-05-30T20:50:47.406Z,2.77
2019-05-30T20:53:16.460Z,3.10
2019-05-30T20:55:46.773Z,3.07
2019-05-30T20:58:15.932Z,2.97
2019-05-30T21:00:45.831Z,4.03
2019-05-30T21:03:14.929Z,2.70
2019-05-30T21:05:44.156Z,3.60
2019-05-30T21:08:13.843Z,3.33
2019-05-30T21:10:43.286Z,2.60
2019-05-30T21:13:12.263Z,3.30
2019-05-30T21:15:41.767Z,2.73
2019-05-30T21:18:17.927Z,3.10
2019-05-30T21:20:46.896Z,3.10
2019-05-30T21:23:16.117Z,3.40
2019-05-30T21:25:45.246Z,3.23
2019-05-30T21:28:14.281Z,2.90
2019-05-30T21:30:43.383Z,3.30
2019-05-30T21:33:12.377Z,3.47
2019-05-30T21:35:41.795Z,3.27
2019-05-30T21:38:11.007Z,3.30
2019-05-30T21:40:40.398Z,3.70
2019-05-30T21:43:09.554Z,3.13
2019-05-30T21:45:38.572Z,3.27
2019-05-30T21:48:07.591Z,3.33
2019-05-30T21:50:36.682Z,3.37
2019-05-30T21:53:05.725Z,3.17
2019-05-30T21:55:34.812Z,3.60
2019-05-30T21:58:03.815Z,3.60
2019-05-30T22:01:09.216Z,3.97
2019-05-30T22:03:38.260Z,4.00
2019-05-30T22:06:07.311Z,4.03
2019-05-30T22:08:36.331Z,4.43
2019-05-30T22:11:05.352Z,3.87
2019-05-30T22:13:34.404Z,4.53
2019-05-30T22:16:03.449Z,4.00
2019-05-30T22:18:32.523Z,3.73
2019-05-30T22:21:01.598Z,4.10
2019-05-30T22:23:30.665Z,3.80
2019-05-30T22:25:59.691Z,4.20
2019-05-30T22:28:28.737Z,4.40
2019-05-30T22:30:57.821Z,3.97
2019-05-30T22:33:26.887Z,4.63
2019-05-30T22:35:55.885Z,4.20
2019-05-30T22:38:24.926Z,3.80
2019-05-30T22:40:54.365Z,4.03
2019-05-30T22:43:25.515Z,3.70
2019-05-30T22:45:54.254Z,4.23
2019-05-30T22:48:23.298Z,4.33
2019-05-30T22:50:54.702Z,4.30
2019-05-30T22:53:23.708Z,4.90
2019-05-30T22:55:53.633Z,5.07
2019-05-30T22:58:22.664Z,4.50
2019-05-30T23:00:52.078Z,5.00
2019-05-30T23:03:21.248Z,5.60
2019-05-30T23:05:51.500Z,4.80
2019-05-30T23:08:20.681Z,4.90
2019-05-30T23:10:49.724Z,4.47
2019-05-30T23:13:18.686Z,5.17
2019-05-30T23:15:48.156Z,4.60
2019-05-30T23:18:17.274Z,5.80
2019-05-30T23:20:46.651Z,5.83
2019-05-30T23:23:15.757Z,5.10
2019-05-30T23:25:44.797Z,5.37
2019-05-30T23:28:13.968Z,5.47
2019-05-30T23:30:42.975Z,5.53
2019-05-30T23:33:12.082Z,5.93
2019-05-30T23:35:41.123Z,5.60
2019-05-30T23:38:10.152Z,5.40
2019-05-30T23:40:39.158Z,5.73
2019-05-30T23:43:08.097Z,6.03
2019-05-30T23:45:37.089Z,5.80
2019-05-30T23:48:06.079Z,6.23
2019-05-30T23:50:35.101Z,7.23
2019-05-30T23:53:04.145Z,6.97
2019-05-30T23:55:33.198Z,7.03
2019-05-30T23:58:02.262Z,6.17
